Time;durP1;ratioP1;P1;durP2;ratioP2;P2;SDS_P1;SDS_P2;PMS_P1;PMS_P2;Temp;Humidity;BMP_temperature;BMP_pressure;BME280_temperature;BME280_humidity;BME280_pressure;Samples;Min_cycle;Max_cycle;Signal;HPM_P1;HPM_P2
2022/05/09 00:02:19;;;;;;;3.58;1.38;;;;;;;;;;5013903;28;20260;-64
2022/05/09 00:04:46;;;;;;;6.82;2.28;;;;;;;;;;5012630;28;20482;-65
2022/05/09 00:07:12;;;;;;;5.18;1.90;;;;;;;;;;5014081;28;20042;-65
2022/05/09 00:09:38;;;;;;;5.90;2.20;;;;;;;;;;5012741;28;20038;-65
2022/05/09 00:12:05;;;;;;;4.63;2.08;;;;;;;;;;5016744;28;20081;-65
2022/05/09 00:14:31;;;;;;;5.88;2.33;;;;;;;;;;5003508;28;20038;-65
2022/05/09 00:16:57;;;;;;;5.78;2.17;;;;;;;;;;5002637;28;20085;-65
2022/05/09 00:19:23;;;;;;;6.20;1.95;;;;;;;;;;5004169;28;20478;-65
2022/05/09 00:21:51;;;;;;;6.97;1.90;;;;;;;;;;5018671;28;20042;-65
2022/05/09 00:24:17;;;;;;;2.45;0.90;;;;;;;;;;5011209;28;20429;-65
2022/05/09 00:26:44;;;;;;;4.68;1.67;;;;;;;;;;5010354;28;20083;-64
2022/05/09 00:29:11;;;;;;;5.80;2.20;;;;;;;;;;5018925;28;20041;-64
2022/05/09 00:31:39;;;;;;;4.28;1.70;;;;;;;;;;5022222;28;20056;-65
2022/05/09 00:34:06;;;;;;;4.35;1.63;;;;;;;;;;5017972;28;20188;-64
2022/05/09 00:36:32;;;;;;;5.15;1.60;;;;;;;;;;5003976;28;20064;-65
2022/05/09 00:39:01;;;;;;;4.70;1.35;;;;;;;;;;5020387;28;20054;-65
2022/05/09 00:41:37;;;;;;;3.28;1.63;;;;;;;;;;4997060;28;20057;-64
2022/05/09 00:44:07;;;;;;;3.30;1.50;;;;;;;;;;4999833;28;20497;-65
2022/05/09 00:46:33;;;;;;;4.10;1.25;;;;;;;;;;5011850;28;20131;-64
2022/05/09 00:49:04;;;;;;;6.95;1.75;;;;;;;;;;5014225;28;20100;-65
2022/05/09 00:51:31;;;;;;;7.47;2.47;;;;;;;;;;4994994;28;20065;-65
2022/05/09 00:54:01;;;;;;;4.88;2.65;;;;;;;;;;5018981;28;20140;-65
2022/05/09 00:56:38;;;;;;;4.63;2.15;;;;;;;;;;5015034;28;20076;-65
2022/05/09 00:59:08;;;;;;;7.95;2.47;;;;;;;;;;5015466;28;20168;-65
2022/05/09 01:01:35;;;;;;;4.70;2.10;;;;;;;;;;5013712;28;20416;-65
2022/05/09 01:04:06;;;;;;;7.85;2.88;;;;;;;;;;4998738;28;20045;-65
2022/05/09 01:06:33;;;;;;;5.47;2.47;;;;;;;;;;5004072;28;20163;-65
2022/05/09 01:08:59;;;;;;;6.53;2.25;;;;;;;;;;4989982;28;20120;-65
2022/05/09 01:11:26;;;;;;;4.75;1.40;;;;;;;;;;5009615;28;20052;-65
2022/05/09 01:13:55;;;;;;;4.63;1.50;;;;;;;;;;4995868;28;20091;-65
2022/05/09 01:16:21;;;;;;;4.95;1.55;;;;;;;;;;5013089;28;20075;-65
2022/05/09 01:18:48;;;;;;;5.13;2.13;;;;;;;;;;5005557;28;20180;-65
2022/05/09 01:21:32;;;;;;;2.40;1.10;;;;;;;;;;5012080;28;20143;-65
2022/05/09 01:23:58;;;;;;;;;;;;;;;;;;5014168;28;21276;-65
2022/05/09 01:26:25;;;;;;;5.10;1.83;;;;;;;;;;5013805;28;19925;-65
2022/05/09 01:28:51;;;;;;;4.00;1.67;;;;;;;;;;5012310;28;20053;-64
2022/05/09 01:31:18;;;;;;;3.78;1.40;;;;;;;;;;5000978;28;20132;-65
2022/05/09 01:33:46;;;;;;;7.53;1.40;;;;;;;;;;5013764;28;20980;-65
2022/05/09 01:36:15;;;;;;;2.83;1.00;;;;;;;;;;5013160;28;20049;-65
2022/05/09 01:38:52;;;;;;;2.95;1.30;;;;;;;;;;5012525;28;20057;-65
2022/05/09 01:41:19;;;;;;;3.38;1.02;;;;;;;;;;5002844;28;20058;-65
2022/05/09 01:43:48;;;;;;;4.88;1.50;;;;;;;;;;4997976;28;20460;-65
2022/05/09 01:46:17;;;;;;;3.10;1.20;;;;;;;;;;5012854;28;20049;-65
2022/05/09 01:51:29;;;;;;;4.25;1.60;;;;;;;;;;5016001;28;20112;-65
2022/05/09 01:53:56;;;;;;;3.85;1.48;;;;;;;;;;5015756;28;20135;-65
2022/05/09 01:56:24;;;;;;;6.40;1.55;;;;;;;;;;5004468;28;20170;-65
2022/05/09 01:58:51;;;;;;;4.20;1.00;;;;;;;;;;5015216;28;20440;-65
2022/05/09 02:01:18;;;;;;;8.00;1.23;;;;;;;;;;5000841;28;20421;-65
2022/05/09 02:03:45;;;;;;;3.78;1.27;;;;;;;;;;5015155;28;20064;-65
2022/05/09 02:06:11;;;;;;;4.32;2.35;;;;;;;;;;5011824;28;20068;-65
2022/05/09 02:08:38;;;;;;;7.93;2.03;;;;;;;;;;5011651;28;20485;-65
2022/05/09 02:11:05;;;;;;;6.65;1.85;;;;;;;;;;5000917;28;20041;-65
2022/05/09 02:13:31;;;;;;;5.32;1.10;;;;;;;;;;5008990;28;20042;-65
2022/05/09 02:15:58;;;;;;;6.32;1.55;;;;;;;;;;4998118;28;20053;-65
2022/05/09 02:18:24;;;;;;;5.28;1.13;;;;;;;;;;5021113;28;20033;-65
2022/05/09 02:20:51;;;;;;;6.78;1.55;;;;;;;;;;5012730;28;20113;-65
2022/05/09 02:23:17;;;;;;;5.50;1.10;;;;;;;;;;5013135;28;20073;-65
2022/05/09 02:25:45;;;;;;;6.68;2.00;;;;;;;;;;5008760;28;20132;-65
2022/05/09 02:28:12;;;;;;;4.45;1.90;;;;;;;;;;5011294;28;20519;-65
2022/05/09 02:30:39;;;;;;;9.70;2.70;;;;;;;;;;5012734;28;20041;-65
2022/05/09 02:33:06;;;;;;;6.93;2.03;;;;;;;;;;5011614;28;20587;-64
2022/05/09 02:35:33;;;;;;;11.30;2.92;;;;;;;;;;5011268;28;20046;-65
2022/05/09 02:37:59;;;;;;;5.45;1.42;;;;;;;;;;5001481;28;20080;-65
2022/05/09 02:40:25;;;;;;;8.13;1.30;;;;;;;;;;5022286;28;20049;-65
2022/05/09 02:42:52;;;;;;;6.22;1.90;;;;;;;;;;5005167;28;20046;-65
2022/05/09 02:45:19;;;;;;;7.28;1.83;;;;;;;;;;5017262;28;20037;-64
2022/05/09 02:47:45;;;;;;;6.57;1.48;;;;;;;;;;5018191;28;20041;-65
2022/05/09 02:50:12;;;;;;;2.80;1.55;;;;;;;;;;5013614;28;20147;-65
2022/05/09 02:52:38;;;;;;;5.03;1.70;;;;;;;;;;5017776;28;20056;-65
2022/05/09 02:55:05;;;;;;;6.20;1.27;;;;;;;;;;5009626;28;21958;-65
2022/05/09 02:57:31;;;;;;;3.22;1.30;;;;;;;;;;5018756;28;20117;-65
2022/05/09 02:59:57;;;;;;;2.45;0.82;;;;;;;;;;5020079;28;20129;-65
2022/05/09 03:02:24;;;;;;;4.75;1.13;;;;;;;;;;5015552;28;20041;-65
2022/05/09 03:04:50;;;;;;;2.80;0.70;;;;;;;;;;5015291;28;20044;-65
2022/05/09 03:07:17;;;;;;;3.13;1.13;;;;;;;;;;5008585;28;20072;-65
2022/05/09 03:09:44;;;;;;;3.72;1.20;;;;;;;;;;5017624;28;20034;-65
2022/05/09 03:12:11;;;;;;;3.83;1.30;;;;;;;;;;5003841;28;20045;-65
2022/05/09 03:14:38;;;;;;;5.68;1.48;;;;;;;;;;5006975;28;20129;-65
2022/05/09 03:17:05;;;;;;;5.35;1.40;;;;;;;;;;5016346;28;20086;-65
2022/05/09 03:19:31;;;;;;;7.80;1.70;;;;;;;;;;5015630;28;20050;-65
2022/05/09 03:21:58;;;;;;;6.05;2.17;;;;;;;;;;5012221;28;20081;-65
2022/05/09 03:24:24;;;;;;;5.43;1.60;;;;;;;;;;5012869;28;20421;-65
2022/05/09 03:26:50;;;;;;;10.50;2.55;;;;;;;;;;5014906;28;20508;-65
2022/05/09 03:29:18;;;;;;;6.75;2.22;;;;;;;;;;5015538;28;20037;-65
2022/05/09 03:31:46;;;;;;;8.35;1.75;;;;;;;;;;4998731;28;20081;-64
2022/05/09 03:34:12;;;;;;;4.68;1.70;;;;;;;;;;5015570;28;20124;-65
2022/05/09 03:36:39;;;;;;;5.47;1.40;;;;;;;;;;4976907;28;20049;-65
2022/05/09 03:39:05;;;;;;;7.50;2.20;;;;;;;;;;5011896;28;20042;-65
2022/05/09 03:41:31;;;;;;;8.25;2.53;;;;;;;;;;5013866;28;20112;-65
2022/05/09 03:43:57;;;;;;;7.25;2.00;;;;;;;;;;5005867;28;20053;-65
2022/05/09 03:46:24;;;;;;;7.55;2.08;;;;;;;;;;5019887;28;20065;-65
2022/05/09 03:48:50;;;;;;;12.48;2.65;;;;;;;;;;4994041;28;20520;-65
2022/05/09 03:51:16;;;;;;;11.98;3.10;;;;;;;;;;5015645;28;20056;-65
2022/05/09 03:53:42;;;;;;;9.98;2.58;;;;;;;;;;5004232;28;20046;-65
2022/05/09 03:56:08;;;;;;;12.50;3.00;;;;;;;;;;5018357;28;20129;-65
2022/05/09 03:58:35;;;;;;;9.32;2.67;;;;;;;;;;5003439;28;20076;-65
2022/05/09 04:01:01;;;;;;;12.00;3.65;;;;;;;;;;5013954;28;20370;-65
2022/05/09 04:03:28;;;;;;;13.23;3.92;;;;;;;;;;5016730;28;20034;-65
2022/05/09 04:05:55;;;;;;;16.00;3.42;;;;;;;;;;5013196;28;20524;-65
2022/05/09 04:08:21;;;;;;;12.80;3.80;;;;;;;;;;5016030;28;20422;-65
2022/05/09 04:10:49;;;;;;;9.88;3.15;;;;;;;;;;5010479;28;20394;-65
2022/05/09 04:13:15;;;;;;;8.95;2.80;;;;;;;;;;5014537;28;20449;-65
2022/05/09 04:18:28;;;;;;;6.15;2.42;;;;;;;;;;5018981;28;20049;-65
2022/05/09 04:20:54;;;;;;;6.38;2.72;;;;;;;;;;5014206;28;20041;-65
2022/05/09 04:23:20;;;;;;;8.05;2.58;;;;;;;;;;5003764;28;20045;-65
2022/05/09 04:25:47;;;;;;;6.70;2.20;;;;;;;;;;5012239;28;20088;-64
2022/05/09 04:28:15;;;;;;;3.72;2.08;;;;;;;;;;5016088;28;20076;-65
2022/05/09 04:30:42;;;;;;;3.80;1.75;;;;;;;;;;5011202;28;20072;-65
2022/05/09 04:33:08;;;;;;;4.50;1.83;;;;;;;;;;4979222;28;1118134;-65
2022/05/09 04:35:35;;;;;;;5.15;1.83;;;;;;;;;;5007485;28;20064;-65
2022/05/09 04:38:02;;;;;;;4.38;1.90;;;;;;;;;;5002908;28;20046;-64
2022/05/09 04:40:31;;;;;;;6.22;2.97;;;;;;;;;;5014714;28;20041;-65
2022/05/09 04:42:57;;;;;;;5.70;1.90;;;;;;;;;;4995950;28;20037;-65
2022/05/09 04:45:24;;;;;;;4.82;2.20;;;;;;;;;;5004244;28;20045;-65
2022/05/09 04:47:51;;;;;;;5.68;2.22;;;;;;;;;;5014786;28;20489;-64
2022/05/09 04:50:18;;;;;;;5.68;2.58;;;;;;;;;;5002685;28;20038;-65
2022/05/09 04:52:45;;;;;;;3.90;1.90;;;;;;;;;;5017286;28;20044;-65
2022/05/09 04:55:12;;;;;;;5.47;2.30;;;;;;;;;;5000499;28;20140;-64
2022/05/09 04:57:38;;;;;;;5.82;2.17;;;;;;;;;;5009751;28;20120;-64
2022/05/09 05:00:06;;;;;;;14.32;4.10;;;;;;;;;;5011406;28;20085;-65
2022/05/09 05:02:32;;;;;;;8.98;3.65;;;;;;;;;;5017280;28;20429;-65
2022/05/09 05:04:58;;;;;;;14.52;4.65;;;;;;;;;;5015001;28;20176;-65
2022/05/09 05:07:24;;;;;;;16.83;5.63;;;;;;;;;;5014242;28;20057;-65
2022/05/09 05:09:50;;;;;;;20.38;6.05;;;;;;;;;;5014114;28;20132;-65
2022/05/09 05:12:16;;;;;;;21.35;6.90;;;;;;;;;;4997329;28;20053;-65
2022/05/09 05:14:44;;;;;;;30.30;6.75;;;;;;;;;;5012075;28;20046;-64
2022/05/09 05:17:11;;;;;;;26.95;7.70;;;;;;;;;;5015727;28;21027;-65
2022/05/09 05:19:40;;;;;;;23.70;7.90;;;;;;;;;;5019290;28;20041;-63
2022/05/09 05:22:07;;;;;;;26.48;7.93;;;;;;;;;;5014019;28;20096;-65
2022/05/09 05:24:34;;;;;;;21.88;7.93;;;;;;;;;;5011262;28;20478;-65
2022/05/09 05:27:00;;;;;;;22.92;8.25;;;;;;;;;;4996285;28;20054;-65
2022/05/09 05:29:26;;;;;;;22.15;8.50;;;;;;;;;;5003145;28;20041;-65
2022/05/09 05:31:52;;;;;;;23.90;8.52;;;;;;;;;;5017150;28;20045;-65
2022/05/09 05:34:19;;;;;;;25.15;8.88;;;;;;;;;;5017032;28;20049;-65
2022/05/09 05:36:45;;;;;;;26.92;10.15;;;;;;;;;;5015979;28;20163;-65
2022/05/09 05:39:15;;;;;;;22.80;8.60;;;;;;;;;;5018961;28;20049;-65
2022/05/09 05:41:43;;;;;;;24.20;9.38;;;;;;;;;;5012717;28;20137;-65
2022/05/09 05:44:11;;;;;;;31.83;9.00;;;;;;;;;;5015233;28;20042;-65
2022/05/09 05:46:39;;;;;;;36.08;9.77;;;;;;;;;;5011378;28;20054;-65
2022/05/09 05:49:05;;;;;;;28.40;9.10;;;;;;;;;;4997049;28;20049;-65
2022/05/09 05:51:32;;;;;;;30.05;10.23;;;;;;;;;;5010114;28;20128;-65
2022/05/09 05:53:58;;;;;;;28.65;10.30;;;;;;;;;;4994578;28;20103;-65
2022/05/09 05:56:25;;;;;;;21.52;8.75;;;;;;;;;;5009819;28;20049;-65
2022/05/09 05:58:51;;;;;;;30.50;8.88;;;;;;;;;;5008722;28;20567;-65
2022/05/09 06:01:18;;;;;;;30.08;9.38;;;;;;;;;;4990680;28;20116;-82
2022/05/09 06:03:45;;;;;;;23.48;10.02;;;;;;;;;;4998473;28;20120;-65
2022/05/09 06:06:13;;;;;;;31.77;10.45;;;;;;;;;;5007667;28;20135;-65
2022/05/09 06:08:40;;;;;;;25.65;9.85;;;;;;;;;;5010524;28;20104;-65
2022/05/09 06:11:07;;;;;;;27.30;10.50;;;;;;;;;;5010208;28;20061;-65
2022/05/09 06:13:34;;;;;;;21.02;9.38;;;;;;;;;;4993054;28;20077;-65
2022/05/09 06:16:00;;;;;;;23.42;7.82;;;;;;;;;;5009151;28;20392;-65
2022/05/09 06:18:26;;;;;;;22.20;8.60;;;;;;;;;;5009446;28;20115;-65
2022/05/09 06:20:52;;;;;;;26.42;7.53;;;;;;;;;;5007719;28;20034;-65
2022/05/09 06:23:19;;;;;;;28.52;8.35;;;;;;;;;;5008902;28;20370;-65
2022/05/09 06:25:46;;;;;;;36.30;8.80;;;;;;;;;;4996401;28;20050;-65
2022/05/09 06:28:15;;;;;;;21.25;8.05;;;;;;;;;;5011736;28;20053;-65
2022/05/09 06:30:41;;;;;;;23.63;8.45;;;;;;;;;;5012562;28;20469;-65
2022/05/09 06:33:08;;;;;;;24.52;8.10;;;;;;;;;;4997008;28;20057;-65
2022/05/09 06:35:38;;;;;;;32.42;9.07;;;;;;;;;;5013111;28;20049;-65
2022/05/09 06:38:05;;;;;;;26.70;8.90;;;;;;;;;;5012082;28;20129;-65
2022/05/09 06:40:32;;;;;;;24.95;8.73;;;;;;;;;;5003831;28;20131;-65
2022/05/09 06:42:58;;;;;;;16.70;7.13;;;;;;;;;;5020027;28;20481;-65
2022/05/09 06:45:26;;;;;;;29.30;8.65;;;;;;;;;;5010396;28;20048;-65
2022/05/09 06:47:53;;;;;;;25.77;7.78;;;;;;;;;;5000180;28;20116;-65
2022/05/09 06:50:20;;;;;;;24.58;7.90;;;;;;;;;;4998161;28;20054;-65
2022/05/09 06:52:46;;;;;;;27.08;8.35;;;;;;;;;;5001729;28;20041;-65
2022/05/09 06:55:13;;;;;;;20.88;6.25;;;;;;;;;;5011106;28;20045;-65
2022/05/09 06:57:41;;;;;;;23.40;7.03;;;;;;;;;;5014572;28;20129;-65
2022/05/09 07:00:08;;;;;;;22.70;7.63;;;;;;;;;;5016075;28;20037;-65
2022/05/09 07:02:34;;;;;;;24.05;7.47;;;;;;;;;;5012778;28;20053;-66
2022/05/09 07:05:03;;;;;;;21.10;7.90;;;;;;;;;;5002785;28;20048;-65
2022/05/09 07:07:29;;;;;;;23.23;7.00;;;;;;;;;;5014982;28;20080;-65
2022/05/09 07:09:55;;;;;;;14.65;5.85;;;;;;;;;;4994762;28;20072;-66
2022/05/09 07:12:21;;;;;;;21.73;6.03;;;;;;;;;;4992041;28;20504;-65
2022/05/09 07:14:47;;;;;;;23.67;7.45;;;;;;;;;;5011186;28;20112;-65
2022/05/09 07:17:13;;;;;;;22.30;6.22;;;;;;;;;;5011537;28;20117;-65
2022/05/09 07:19:40;;;;;;;22.73;5.22;;;;;;;;;;5009052;28;20048;-65
2022/05/09 07:22:06;;;;;;;21.10;5.97;;;;;;;;;;5014448;28;20342;-65
2022/05/09 07:24:32;;;;;;;23.95;6.90;;;;;;;;;;5012859;28;20054;-65
2022/05/09 07:26:58;;;;;;;19.27;6.80;;;;;;;;;;5015767;28;20038;-65
2022/05/09 07:29:24;;;;;;;23.70;6.82;;;;;;;;;;5018403;28;20056;-65
2022/05/09 07:31:51;;;;;;;21.00;6.35;;;;;;;;;;5014288;28;20112;-65
2022/05/09 07:34:17;;;;;;;24.08;6.07;;;;;;;;;;5007581;28;20053;-65
2022/05/09 07:36:43;;;;;;;30.25;6.95;;;;;;;;;;5011684;28;20038;-65
2022/05/09 07:39:09;;;;;;;22.48;7.00;;;;;;;;;;5016440;28;20054;-65
2022/05/09 07:41:35;;;;;;;19.55;6.25;;;;;;;;;;5012716;28;20052;-65
2022/05/09 07:44:02;;;;;;;25.95;6.85;;;;;;;;;;5010036;28;20041;-65
2022/05/09 07:46:28;;;;;;;24.23;6.80;;;;;;;;;;5002951;28;20063;-65
2022/05/09 07:48:54;;;;;;;19.58;6.40;;;;;;;;;;5002019;28;20057;-65
2022/05/09 07:51:20;;;;;;;22.45;6.32;;;;;;;;;;5019427;28;20040;-65
2022/05/09 07:53:47;;;;;;;20.88;6.10;;;;;;;;;;5011056;28;20049;-65
2022/05/09 07:56:13;;;;;;;20.38;5.60;;;;;;;;;;5015878;28;20046;-65
2022/05/09 07:58:39;;;;;;;20.45;5.82;;;;;;;;;;5016926;28;20048;-65
2022/05/09 08:01:05;;;;;;;20.20;6.35;;;;;;;;;;5006203;28;20064;-65
2022/05/09 08:03:33;;;;;;;20.13;6.13;;;;;;;;;;5018779;28;20044;-65
2022/05/09 08:06:00;;;;;;;23.55;5.80;;;;;;;;;;5017420;28;20045;-65
2022/05/09 08:08:28;;;;;;;22.63;5.63;;;;;;;;;;5005542;28;20041;-65
2022/05/09 08:10:55;;;;;;;18.60;5.53;;;;;;;;;;5018928;28;20068;-65
2022/05/09 08:13:22;;;;;;;16.20;5.35;;;;;;;;;;5023345;28;20084;-65
2022/05/09 08:15:49;;;;;;;21.27;5.18;;;;;;;;;;5017647;28;20038;-65
2022/05/09 08:18:15;;;;;;;17.85;4.55;;;;;;;;;;5019358;28;20418;-65
2022/05/09 08:20:45;;;;;;;14.93;4.88;;;;;;;;;;5020456;28;20053;-65
2022/05/09 08:23:15;;;;;;;15.73;5.07;;;;;;;;;;5019402;28;20423;-65
2022/05/09 08:25:42;;;;;;;18.70;4.75;;;;;;;;;;5013192;28;20038;-65
2022/05/09 08:28:09;;;;;;;20.50;5.72;;;;;;;;;;5017776;28;20867;-65
2022/05/09 08:30:36;;;;;;;19.60;5.22;;;;;;;;;;5009905;28;20243;-65
2022/05/09 08:33:03;;;;;;;18.38;4.78;;;;;;;;;;4997628;28;20064;-65
2022/05/09 08:35:29;;;;;;;18.05;5.05;;;;;;;;;;5013587;28;20137;-65
2022/05/09 08:37:56;;;;;;;20.17;4.88;;;;;;;;;;5000394;28;20041;-65
2022/05/09 08:40:29;;;;;;;21.52;5.50;;;;;;;;;;5021066;28;20057;-65
2022/05/09 08:42:58;;;;;;;18.05;5.20;;;;;;;;;;5002484;28;20053;-66
2022/05/09 08:45:27;;;;;;;13.63;4.03;;;;;;;;;;5013540;28;20119;-65
2022/05/09 08:48:00;;;;;;;13.73;4.03;;;;;;;;;;4988899;28;20044;-65
2022/05/09 08:50:31;;;;;;;15.43;4.82;;;;;;;;;;5019583;28;20046;-65
2022/05/09 08:53:00;;;;;;;14.07;4.07;;;;;;;;;;5024029;28;20057;-64
2022/05/09 08:55:27;;;;;;;16.48;4.10;;;;;;;;;;5009292;28;20493;-65
2022/05/09 08:58:04;;;;;;;19.98;4.50;;;;;;;;;;5012915;28;20038;-65
2022/05/09 09:00:31;;;;;;;21.73;5.07;;;;;;;;;;5015976;28;20363;-65
2022/05/09 09:03:15;;;;;;;13.43;3.40;;;;;;;;;;5024794;28;20045;-65
2022/05/09 09:05:45;;;;;;;18.38;4.82;;;;;;;;;;5012675;28;20061;-65
2022/05/09 09:08:11;;;;;;;17.33;4.10;;;;;;;;;;5012173;28;20057;-65
2022/05/09 09:10:47;;;;;;;16.35;3.60;;;;;;;;;;5006275;28;20042;-65
2022/05/09 09:13:23;;;;;;;21.33;4.40;;;;;;;;;;5015669;28;20041;-65
2022/05/09 09:16:01;;;;;;;15.93;3.80;;;;;;;;;;5010337;28;20570;-66
2022/05/09 09:18:42;;;;;;;18.48;4.15;;;;;;;;;;5023735;28;20034;-65
2022/05/09 09:21:11;;;;;;;16.70;4.13;;;;;;;;;;5018349;28;20851;-65
2022/05/09 09:23:43;;;;;;;14.98;3.88;;;;;;;;;;5015269;28;20048;-65
2022/05/09 09:26:24;;;;;;;10.32;3.30;;;;;;;;;;5023408;28;20041;-65
2022/05/09 09:28:53;;;;;;;16.35;4.53;;;;;;;;;;5021542;28;20038;-66
2022/05/09 09:31:24;;;;;;;14.68;3.08;;;;;;;;;;5019533;28;20179;-66
2022/05/09 09:33:55;;;;;;;13.10;3.13;;;;;;;;;;5008457;28;20469;-66
2022/05/09 09:36:23;;;;;;;15.10;3.92;;;;;;;;;;5004333;28;20045;-66
2022/05/09 09:38:57;;;;;;;13.13;3.33;;;;;;;;;;5015408;28;20042;-66
2022/05/09 09:41:28;;;;;;;19.60;4.30;;;;;;;;;;5008334;28;20046;-66
2022/05/09 09:43:59;;;;;;;14.50;3.83;;;;;;;;;;4997660;28;20148;-66
2022/05/09 09:46:25;;;;;;;19.42;4.20;;;;;;;;;;5011030;28;20072;-66
2022/05/09 09:49:07;;;;;;;14.23;3.83;;;;;;;;;;5008712;28;20573;-66
2022/05/09 09:51:44;;;;;;;14.88;3.65;;;;;;;;;;5009607;28;20045;-66
2022/05/09 09:54:10;;;;;;;11.43;2.78;;;;;;;;;;5005193;28;20074;-66
2022/05/09 09:56:36;;;;;;;12.70;3.33;;;;;;;;;;5009999;28;20472;-66
2022/05/09 09:59:20;;;;;;;11.65;3.53;;;;;;;;;;5019970;28;20042;-66
2022/05/09 10:02:00;;;;;;;13.77;3.08;;;;;;;;;;5015820;28;20164;-65
2022/05/09 10:04:28;;;;;;;13.68;3.58;;;;;;;;;;5014905;28;20499;-66
2022/05/09 10:07:01;;;;;;;15.20;3.90;;;;;;;;;;5013484;28;20424;-65
2022/05/09 10:09:29;;;;;;;13.57;4.05;;;;;;;;;;5012836;28;20041;-66
2022/05/09 10:12:13;;;;;;;11.32;3.20;;;;;;;;;;5014781;28;20406;-69
2022/05/09 10:14:39;;;;;;;11.25;3.13;;;;;;;;;;4993610;28;20050;-69
2022/05/09 10:17:20;;;;;;;16.67;3.40;;;;;;;;;;5012243;28;20050;-69
2022/05/09 10:19:46;;;;;;;10.70;2.35;;;;;;;;;;5013641;28;20042;-69
2022/05/09 10:25:07;;;;;;;10.85;2.95;;;;;;;;;;5013215;28;20140;-69
2022/05/09 10:27:33;;;;;;;12.07;2.80;;;;;;;;;;5017394;28;20038;-69
2022/05/09 10:30:01;;;;;;;9.77;3.03;;;;;;;;;;5015381;28;20103;-66
2022/05/09 10:32:49;;;;;;;10.75;3.05;;;;;;;;;;5013258;28;20506;-69
2022/05/09 10:35:23;;;;;;;14.20;3.63;;;;;;;;;;5015754;28;20073;-69
2022/05/09 10:37:50;;;;;;;12.30;3.55;;;;;;;;;;5010115;28;20512;-69
2022/05/09 10:40:21;;;;;;;11.88;2.90;;;;;;;;;;5011043;28;20084;-69
2022/05/09 10:42:49;;;;;;;13.38;2.63;;;;;;;;;;5004077;28;20046;-69
2022/05/09 10:45:18;;;;;;;10.65;2.90;;;;;;;;;;4995712;28;20513;-69
2022/05/09 10:47:48;;;;;;;16.80;3.65;;;;;;;;;;5011841;28;20042;-70
2022/05/09 10:50:17;;;;;;;11.23;3.05;;;;;;;;;;5017672;28;20394;-69
2022/05/09 10:53:07;;;;;;;9.35;2.60;;;;;;;;;;5007402;28;20053;-69
2022/05/09 10:55:39;;;;;;;9.38;2.88;;;;;;;;;;5014071;28;20060;-69
2022/05/09 10:58:17;;;;;;;11.55;2.90;;;;;;;;;;5024636;28;20504;-69
2022/05/09 11:00:47;;;;;;;9.60;3.13;;;;;;;;;;5015727;28;20045;-69
2022/05/09 11:03:21;;;;;;;12.77;2.72;;;;;;;;;;5027649;28;20042;-69
2022/05/09 11:05:50;;;;;;;13.35;2.75;;;;;;;;;;5027653;28;20565;-69
2022/05/09 11:08:27;;;;;;;10.90;3.00;;;;;;;;;;5013673;28;20136;-69
2022/05/09 11:10:59;;;;;;;16.15;3.10;;;;;;;;;;5026730;28;20114;-69
2022/05/09 11:13:29;;;;;;;9.63;2.80;;;;;;;;;;5018362;28;20473;-69
2022/05/09 11:16:12;;;;;;;13.85;2.83;;;;;;;;;;5017328;28;20121;-69
2022/05/09 11:18:38;;;;;;;16.17;3.35;;;;;;;;;;5012766;28;20038;-69
2022/05/09 11:21:08;;;;;;;8.52;3.17;;;;;;;;;;5021787;28;20104;-69
2022/05/09 11:23:43;;;;;;;12.20;2.58;;;;;;;;;;5003871;28;20498;-69
2022/05/09 11:26:24;;;;;;;10.85;2.75;;;;;;;;;;5015286;28;20504;-69
2022/05/09 11:29:01;;;;;;;10.75;2.67;;;;;;;;;;5003004;28;20037;-69
2022/05/09 11:31:30;;;;;;;12.15;3.72;;;;;;;;;;5017859;28;20500;-69
2022/05/09 11:33:58;;;;;;;9.63;2.40;;;;;;;;;;5013233;28;20138;-69
2022/05/09 11:36:39;;;;;;;8.98;3.65;;;;;;;;;;5032711;28;20044;-69
2022/05/09 11:39:11;;;;;;;7.88;2.55;;;;;;;;;;5025357;28;20082;-69
2022/05/09 11:41:48;;;;;;;6.88;2.65;;;;;;;;;;5025808;28;20137;-69
2022/05/09 11:44:17;;;;;;;13.43;3.92;;;;;;;;;;5011827;28;20136;-70
2022/05/09 11:46:49;;;;;;;7.85;2.55;;;;;;;;;;5020681;28;20049;-69
2022/05/09 11:49:15;;;;;;;10.57;2.85;;;;;;;;;;5027224;28;20499;-69
2022/05/09 11:51:45;;;;;;;11.07;2.60;;;;;;;;;;5013641;28;20095;-69
2022/05/09 11:54:16;;;;;;;10.27;2.60;;;;;;;;;;5012318;28;20101;-69
2022/05/09 11:56:45;;;;;;;11.15;2.78;;;;;;;;;;5015682;28;20130;-69
2022/05/09 11:59:16;;;;;;;9.93;2.95;;;;;;;;;;5014977;28;20052;-69
2022/05/09 12:01:52;;;;;;;9.07;2.88;;;;;;;;;;5012198;28;20318;-70
2022/05/09 12:04:39;;;;;;;9.63;2.50;;;;;;;;;;5012133;28;20046;-69
2022/05/09 12:07:35;;;;;;;8.00;2.85;;;;;;;;;;5011113;28;20124;-69
2022/05/09 12:10:05;;;;;;;9.88;2.72;;;;;;;;;;5013644;28;20053;-69
2022/05/09 12:12:37;;;;;;;9.10;2.45;;;;;;;;;;5013096;28;20045;-69
2022/05/09 12:15:04;;;;;;;8.88;2.47;;;;;;;;;;5027595;28;20044;-69
2022/05/09 12:17:35;;;;;;;8.80;2.38;;;;;;;;;;5009144;28;20413;-69
2022/05/09 12:20:02;;;;;;;11.73;2.80;;;;;;;;;;5004226;28;20088;-69
2022/05/09 12:22:42;;;;;;;14.88;3.10;;;;;;;;;;5012470;28;20038;-69
2022/05/09 12:25:10;;;;;;;9.05;2.47;;;;;;;;;;4995758;28;20551;-69
2022/05/09 12:27:40;;;;;;;11.80;2.80;;;;;;;;;;5007739;28;20446;-69
2022/05/09 12:30:11;;;;;;;8.75;2.28;;;;;;;;;;5018791;28;20530;-66
2022/05/09 12:32:37;;;;;;;10.23;2.55;;;;;;;;;;5015001;28;20050;-68
2022/05/09 12:35:07;;;;;;;10.15;2.72;;;;;;;;;;5015613;28;20409;-68
2022/05/09 12:37:42;;;;;;;10.20;2.13;;;;;;;;;;5014255;28;20042;-68
2022/05/09 12:40:19;;;;;;;11.27;2.33;;;;;;;;;;5013567;28;20493;-68
2022/05/09 12:42:47;;;;;;;7.40;2.25;;;;;;;;;;4995257;28;20072;-68
2022/05/09 12:45:15;;;;;;;9.98;2.80;;;;;;;;;;5014173;28;20113;-68
2022/05/09 12:47:42;;;;;;;10.32;2.83;;;;;;;;;;5012915;28;20095;-68
2022/05/09 12:50:18;;;;;;;7.68;2.05;;;;;;;;;;5012651;28;20065;-68
2022/05/09 12:52:50;;;;;;;8.70;2.33;;;;;;;;;;4998531;28;20203;-68
2022/05/09 12:58:02;;;;;;;7.57;2.67;;;;;;;;;;5003587;28;20049;-68
2022/05/09 13:00:30;;;;;;;8.15;2.60;;;;;;;;;;5014907;28;20038;-68
2022/05/09 13:03:04;;;;;;;9.18;2.55;;;;;;;;;;4997471;28;20384;-68
2022/05/09 13:05:34;;;;;;;10.15;2.85;;;;;;;;;;4997733;28;20033;-68
2022/05/09 13:08:04;;;;;;;9.40;2.78;;;;;;;;;;5014786;28;20133;-68
2022/05/09 13:10:31;;;;;;;7.97;2.67;;;;;;;;;;4999299;28;20111;-68
2022/05/09 13:13:01;;;;;;;9.82;2.60;;;;;;;;;;5010867;28;20053;-69
2022/05/09 13:15:28;;;;;;;9.60;2.22;;;;;;;;;;5003133;28;20049;-68
2022/05/09 13:17:58;;;;;;;11.35;3.10;;;;;;;;;;5010071;28;20587;-68
2022/05/09 13:20:26;;;;;;;10.35;2.35;;;;;;;;;;5009334;28;20073;-68
2022/05/09 13:22:55;;;;;;;12.40;2.65;;;;;;;;;;4995219;28;20053;-68
2022/05/09 13:25:26;;;;;;;11.00;2.63;;;;;;;;;;5009892;28;20060;-68
2022/05/09 13:27:56;;;;;;;9.03;3.20;;;;;;;;;;5012836;28;20065;-68
2022/05/09 13:30:22;;;;;;;10.65;2.40;;;;;;;;;;5008618;28;20042;-68
2022/05/09 13:32:53;;;;;;;8.95;2.45;;;;;;;;;;5013502;28;20060;-68
2022/05/09 13:35:22;;;;;;;7.63;2.40;;;;;;;;;;5012080;28;20058;-68
2022/05/09 13:37:52;;;;;;;5.82;2.28;;;;;;;;;;5012303;28;20037;-67
2022/05/09 13:40:19;;;;;;;7.00;2.40;;;;;;;;;;5013083;28;20449;-68
2022/05/09 13:42:47;;;;;;;8.15;2.03;;;;;;;;;;4997409;28;20121;-68
2022/05/09 13:45:20;;;;;;;11.70;2.78;;;;;;;;;;5014779;28;20060;-68
2022/05/09 13:47:58;;;;;;;9.18;2.78;;;;;;;;;;5004645;28;20552;-68
2022/05/09 13:50:28;;;;;;;9.38;2.03;;;;;;;;;;4998448;28;20318;-68
2022/05/09 13:52:55;;;;;;;9.40;2.05;;;;;;;;;;5012175;28;20351;-68
2022/05/09 13:55:30;;;;;;;8.00;2.28;;;;;;;;;;5010191;28;20064;-67
2022/05/09 13:57:58;;;;;;;7.63;2.17;;;;;;;;;;5012229;28;20482;-67
2022/05/09 14:00:26;;;;;;;7.90;2.20;;;;;;;;;;4997404;28;20464;-68
2022/05/09 14:03:00;;;;;;;8.27;2.60;;;;;;;;;;5014006;28;20045;-67
2022/05/09 14:05:28;;;;;;;11.35;2.13;;;;;;;;;;5015064;28;20073;-68
2022/05/09 14:07:58;;;;;;;8.27;1.83;;;;;;;;;;5002666;28;20054;-67
2022/05/09 14:10:30;;;;;;;9.43;2.78;;;;;;;;;;4998012;28;20188;-67
2022/05/09 14:12:57;;;;;;;9.15;2.67;;;;;;;;;;5013049;28;20042;-68
2022/05/09 14:15:25;;;;;;;8.95;2.03;;;;;;;;;;5015355;28;20452;-67
2022/05/09 14:17:54;;;;;;;9.43;2.55;;;;;;;;;;5011752;28;20049;-67
2022/05/09 14:20:25;;;;;;;6.57;1.88;;;;;;;;;;5017336;28;20046;-67
2022/05/09 14:22:51;;;;;;;9.25;2.00;;;;;;;;;;4995120;28;20073;-68
2022/05/09 14:31:00;;;;;;;7.47;2.03;;;;;;;;;;4990882;28;20192;-69
2022/05/09 14:33:35;;;;;;;10.55;2.50;;;;;;;;;;4996490;28;20456;-67
2022/05/09 14:36:04;;;;;;;7.95;2.50;;;;;;;;;;5018830;28;20178;-67
2022/05/09 14:38:33;;;;;;;8.35;2.35;;;;;;;;;;5014897;28;20064;-67
2022/05/09 14:41:36;;;;;;;8.15;2.10;;;;;;;;;;5002076;28;20050;-67
2022/05/09 14:44:09;;;;;;;13.55;3.40;;;;;;;;;;5007914;28;20050;-67
2022/05/09 14:46:41;;;;;;;13.93;2.90;;;;;;;;;;5015911;28;20473;-67
2022/05/09 14:49:15;;;;;;;10.88;2.83;;;;;;;;;;5020980;28;20052;-67
2022/05/09 14:51:41;;;;;;;5.72;2.28;;;;;;;;;;5016180;28;20102;-67
2022/05/09 14:54:08;;;;;;;11.88;2.65;;;;;;;;;;5014631;28;20125;-67
2022/05/09 14:59:22;;;;;;;9.40;2.10;;;;;;;;;;5005684;28;20041;-67
2022/05/09 15:01:51;;;;;;;13.48;2.78;;;;;;;;;;5002471;28;20052;-67
2022/05/09 15:04:17;;;;;;;8.15;2.22;;;;;;;;;;5013058;28;20066;-67
2022/05/09 15:06:43;;;;;;;6.97;2.22;;;;;;;;;;5009017;28;20042;-67